Winchester, Indiana
Current Conditions -  °F | °C
As of 12:53 PM on Friday 21 Nov 2014 (Local Time) from KMIE Reporting Station
Clear Clear  
Wind Chill: 21°   Ceiling: Unl
Heat Index: 28°   Visibility: 10mi
Dew Point: 11°   Wind: 7mph
Humidity: 49%   Direction: 130°SE
Pressure: 30.47"   Gusts: NA
Location:  40.17°N, 84.98°W
Report Text: KMIE 211753Z 13006KT 10SM CLR M02/M12 A3047 RMK AO2 SLP329 T10221117 11022 21122 58003
Loading
Personal Weather Stations






























Interactive Weather Map New forecast layout! Learn more

10-Day Weather Forecast

Advertisements
Track Severe Weather on mobile